createdAt,value
2024-01-04T00:01:51.522Z,100211.34
2024-01-04T00:04:18.307Z,100232.47
2024-01-04T00:06:45.682Z,100218.31
2024-01-04T00:09:13.166Z,100245.56
2024-01-04T00:11:40.079Z,100232.56
2024-01-04T00:14:10.192Z,100243.13
2024-01-04T00:16:37.170Z,100252.69
2024-01-04T00:19:04.515Z,100251.81
2024-01-04T00:21:31.411Z,100256.25
2024-01-04T00:24:02.046Z,100256.25
2024-01-04T00:26:28.839Z,100252.88
2024-01-04T00:28:55.662Z,100251.19
2024-01-04T00:31:22.344Z,100258.13
2024-01-04T00:33:49.153Z,100252.88
2024-01-04T00:36:18.984Z,100263.28
2024-01-04T00:38:45.787Z,100263.19
2024-01-04T00:41:12.518Z,100264.94
2024-01-04T00:43:39.285Z,100262.31
2024-01-04T00:46:06.025Z,100262.22
2024-01-04T00:48:32.875Z,100266.44
2024-01-04T00:51:02.393Z,100279.44
2024-01-04T00:53:29.097Z,100270.69
2024-01-04T00:55:55.786Z,100274.03
2024-01-04T00:58:24.806Z,100287.91
2024-01-04T01:00:56.716Z,100293.00
2024-01-04T01:03:23.533Z,100297.25
2024-01-04T01:05:53.222Z,100290.03
2024-01-04T01:08:22.335Z,100304.09
2024-01-04T01:10:51.646Z,100295.13
2024-01-04T01:13:21.832Z,100308.22
2024-01-04T01:15:51.188Z,100306.28
2024-01-04T01:18:18.040Z,100321.91
2024-01-04T01:20:47.372Z,100317.47
2024-01-04T01:23:14.042Z,100309.66
2024-01-04T01:25:43.020Z,100315.63
2024-01-04T01:28:09.643Z,100316.44
2024-01-04T01:30:38.573Z,100296.09
2024-01-04T01:33:05.670Z,100324.06
2024-01-04T01:35:32.627Z,100327.53
2024-01-04T01:37:59.414Z,100330.03
2024-01-04T01:40:28.530Z,100331.69
2024-01-04T01:42:55.346Z,100335.91
2024-01-04T01:45:25.222Z,100343.69
2024-01-04T01:47:52.323Z,100343.59
2024-01-04T01:50:21.830Z,100339.00
2024-01-04T01:52:51.225Z,100343.44
2024-01-04T01:55:18.964Z,100352.94
2024-01-04T01:57:45.826Z,100351.06
2024-01-04T02:00:15.251Z,100358.84
2024-01-04T02:02:49.063Z,100352.72
2024-01-04T02:05:18.747Z,100365.66
2024-01-04T02:07:46.778Z,100359.47
2024-01-04T02:10:15.694Z,100362.94
2024-01-04T02:12:42.439Z,100369.88
2024-01-04T02:15:09.509Z,100375.81
2024-01-04T02:17:36.884Z,100377.56
2024-01-04T02:20:03.962Z,100374.75
2024-01-04T02:22:33.029Z,100374.81
2024-01-04T02:24:59.687Z,100384.31
2024-01-04T02:27:26.435Z,100396.38
2024-01-04T02:29:55.328Z,100345.34
2024-01-04T02:32:21.976Z,100391.13
2024-01-04T02:34:50.861Z,100398.81
2024-01-04T02:37:17.591Z,100367.97
2024-01-04T02:39:44.226Z,100403.00
2024-01-04T02:42:10.983Z,100388.97
2024-01-04T02:44:37.741Z,100394.97
2024-01-04T02:47:07.638Z,100396.66
2024-01-04T02:49:34.447Z,100413.25
2024-01-04T02:52:03.456Z,100396.44
2024-01-04T02:54:30.176Z,100407.13
2024-01-04T02:56:57.011Z,100406.91
2024-01-04T02:59:23.933Z,100413.03
2024-01-04T03:01:50.686Z,100406.91
2024-01-04T03:04:17.556Z,100406.72
2024-01-04T03:06:49.133Z,100428.44
2024-01-04T03:09:15.988Z,100427.50
2024-01-04T03:11:42.757Z,100430.91
2024-01-04T03:14:09.580Z,100434.38
2024-01-04T03:16:36.253Z,100435.13
2024-01-04T03:19:05.545Z,100430.78
2024-01-04T03:21:32.338Z,100416.56
2024-01-04T03:24:01.521Z,100363.53
2024-01-04T03:26:28.266Z,100447.09
2024-01-04T03:28:55.202Z,100421.44
2024-01-04T03:31:21.894Z,100447.78
2024-01-04T03:33:51.187Z,100452.97
2024-01-04T03:36:18.339Z,100422.00
2024-01-04T03:38:47.653Z,100454.47
2024-01-04T03:41:14.548Z,100452.75
2024-01-04T03:43:41.214Z,100457.94
2024-01-04T03:46:10.237Z,100401.47
2024-01-04T03:48:37.286Z,100439.28
2024-01-04T03:51:04.505Z,100456.06
2024-01-04T03:53:31.209Z,100454.19
2024-01-04T03:56:00.320Z,100468.91
2024-01-04T03:58:27.672Z,100460.28
2024-01-04T04:00:57.166Z,100463.66
2024-01-04T04:03:23.965Z,100452.72
2024-01-04T04:05:51.253Z,100470.47
2024-01-04T04:08:17.928Z,100462.59
2024-01-04T04:10:45.378Z,100465.13
2024-01-04T04:13:12.150Z,100406.13
2024-01-04T04:15:38.783Z,100465.00
2024-01-04T04:18:05.809Z,100461.53
2024-01-04T04:20:34.858Z,100458.81
2024-01-04T04:23:03.861Z,100456.09
2024-01-04T04:25:30.529Z,100463.88
2024-01-04T04:27:57.239Z,100457.50
2024-01-04T04:30:24.530Z,100476.81
2024-01-04T04:32:51.655Z,100457.28
2024-01-04T04:35:20.473Z,100481.94
2024-01-04T04:37:49.631Z,100487.88
2024-01-04T04:40:16.459Z,100494.84
2024-01-04T04:42:43.188Z,100494.84
2024-01-04T04:45:10.210Z,100506.91
2024-01-04T04:47:37.239Z,100511.19
2024-01-04T04:50:06.788Z,100488.25
2024-01-04T04:52:33.408Z,100494.44
2024-01-04T04:55:02.464Z,100513.50
2024-01-04T04:57:29.278Z,100517.03
2024-01-04T04:59:56.001Z,100506.44
2024-01-04T05:02:22.757Z,100520.47
2024-01-04T05:04:51.605Z,100521.22
2024-01-04T05:07:20.295Z,100518.69
2024-01-04T05:09:46.984Z,100522.13
2024-01-04T05:12:13.790Z,100519.53
2024-01-04T05:14:40.482Z,100519.53
2024-01-04T05:17:07.242Z,100511.69
2024-01-04T05:19:34.041Z,100487.59
2024-01-04T05:22:04.571Z,100510.63
2024-01-04T05:24:31.446Z,100522.72
2024-01-04T05:27:03.028Z,100512.28
2024-01-04T05:29:29.659Z,100474.19
2024-01-04T05:31:56.594Z,100519.97
2024-01-04T05:34:23.522Z,100524.16
2024-01-04T05:36:52.796Z,100521.50
2024-01-04T05:39:19.582Z,100515.53
2024-01-04T05:41:46.307Z,100509.47
2024-01-04T05:44:13.080Z,100512.06
2024-01-04T05:46:39.805Z,100516.31
2024-01-04T05:49:08.798Z,100511.00
2024-01-04T05:51:42.357Z,100509.06
2024-01-04T05:54:10.924Z,100530.13
2024-01-04T05:56:38.145Z,100530.13
2024-01-04T05:59:04.926Z,100520.56
2024-01-04T06:01:34.049Z,100525.81
2024-01-04T06:04:00.927Z,100518.91
2024-01-04T06:06:27.797Z,100512.00
2024-01-04T06:08:54.516Z,100529.56
2024-01-04T06:11:21.253Z,100521.63
2024-01-04T06:13:47.953Z,100492.59
2024-01-04T06:16:14.880Z,100538.53
2024-01-04T06:18:41.750Z,100538.59
2024-01-04T06:21:08.561Z,100496.03
2024-01-04T06:23:35.473Z,100548.13
2024-01-04T06:26:02.176Z,100544.66
2024-01-04T06:28:28.811Z,100546.66
2024-01-04T06:30:58.031Z,100544.94
2024-01-04T06:33:24.878Z,100545.00
2024-01-04T06:35:51.683Z,100525.66
2024-01-04T06:38:20.849Z,100544.28
2024-01-04T06:40:49.613Z,100475.59
2024-01-04T06:43:18.508Z,100541.03
2024-01-04T06:45:45.305Z,100543.69
2024-01-04T06:48:12.240Z,100542.03
2024-01-04T06:50:39.119Z,100489.03
2024-01-04T06:53:05.988Z,100543.03
2024-01-04T06:55:32.634Z,100546.56
2024-01-04T06:57:59.434Z,100534.31
2024-01-04T07:00:26.710Z,100541.38
2024-01-04T07:02:55.792Z,100522.91
2024-01-04T07:05:24.927Z,100546.56
2024-01-04T07:07:51.613Z,100540.38
2024-01-04T07:10:20.534Z,100540.88
2024-01-04T07:12:49.698Z,100554.59
2024-01-04T07:15:16.411Z,100546.59
2024-01-04T07:17:43.415Z,100557.97
2024-01-04T07:20:10.587Z,100513.50
2024-01-04T07:22:37.380Z,100563.97
2024-01-04T07:25:04.393Z,100567.34
2024-01-04T07:27:31.215Z,100557.47
2024-01-04T07:30:00.664Z,100574.88
2024-01-04T07:32:28.980Z,100567.78
2024-01-04T07:35:07.687Z,100575.47
2024-01-04T07:37:41.861Z,100570.00
2024-01-04T07:40:13.893Z,100572.56
2024-01-04T07:42:40.923Z,100557.53
2024-01-04T07:45:08.954Z,100556.53
2024-01-04T07:47:41.749Z,100571.66
2024-01-04T07:50:13.406Z,100567.06
2024-01-04T07:52:40.205Z,100575.91
2024-01-04T07:55:07.930Z,100575.69
2024-01-04T07:57:34.824Z,100576.56
2024-01-04T08:00:01.598Z,100575.47
2024-01-04T08:02:34.368Z,100546.84
2024-01-04T08:05:01.206Z,100568.69
2024-01-04T08:07:27.957Z,100570.13
2024-01-04T08:09:56.937Z,100576.22
2024-01-04T08:12:23.767Z,100573.50
2024-01-04T08:14:50.582Z,100570.09
2024-01-04T08:17:17.260Z,100572.72
2024-01-04T08:19:44.059Z,100565.78
2024-01-04T08:22:10.756Z,100551.31
2024-01-04T08:24:41.713Z,100562.69
2024-01-04T08:27:11.088Z,100576.16
2024-01-04T08:29:37.982Z,100568.88
2024-01-04T08:32:07.324Z,100575.84
2024-01-04T08:34:36.289Z,100574.13
2024-01-04T08:37:06.038Z,100582.03
2024-01-04T08:39:33.213Z,100542.34
2024-01-04T08:41:59.895Z,100570.09
2024-01-04T08:44:26.806Z,100570.09
2024-01-04T08:46:54.562Z,100558.84
2024-01-04T08:49:21.641Z,100548.47
2024-01-04T08:51:52.944Z,100550.41
2024-01-04T08:54:19.818Z,100532.88
2024-01-04T08:56:46.658Z,100541.84
2024-01-04T08:59:13.595Z,100530.56
2024-01-04T09:01:43.167Z,100516.66
2024-01-04T09:04:10.401Z,100529.91
2024-01-04T09:06:38.054Z,100499.13
2024-01-04T09:09:08.980Z,100544.16
2024-01-04T09:11:42.634Z,100537.34
2024-01-04T09:14:13.600Z,100480.22
2024-01-04T09:16:46.588Z,100518.50
2024-01-04T09:19:17.401Z,100521.22
2024-01-04T09:21:47.430Z,100529.78
2024-01-04T09:24:15.044Z,100517.63
2024-01-04T09:26:45.032Z,100526.41
2024-01-04T09:29:13.507Z,100520.44
2024-01-04T09:31:43.453Z,100530.88
2024-01-04T09:34:10.544Z,100517.03
2024-01-04T09:36:37.334Z,100521.63
2024-01-04T09:39:08.756Z,100523.72
2024-01-04T09:41:46.253Z,100517.09
2024-01-04T09:44:14.872Z,100521.63
2024-01-04T09:46:43.223Z,100522.63
2024-01-04T09:49:12.839Z,100524.41
2024-01-04T09:51:43.296Z,100511.59
2024-01-04T09:54:11.759Z,100522.31
2024-01-04T09:56:43.917Z,100525.94
2024-01-04T09:59:11.393Z,100524.34
2024-01-04T10:01:39.452Z,100511.56
2024-01-04T10:04:15.382Z,100524.75
2024-01-04T10:06:46.214Z,100523.16
2024-01-04T10:09:18.649Z,100528.66
2024-01-04T10:11:53.681Z,100502.63
2024-01-04T10:14:22.551Z,100510.78
2024-01-04T10:16:51.844Z,100520.34
2024-01-04T10:19:18.841Z,100508.13
2024-01-04T10:21:47.402Z,100510.66
2024-01-04T10:24:17.389Z,100510.72
2024-01-04T10:26:54.935Z,100475.47
2024-01-04T10:29:27.690Z,100462.41
2024-01-04T10:32:09.600Z,100497.81
2024-01-04T10:34:38.335Z,100480.31
2024-01-04T10:37:19.080Z,100485.78
2024-01-04T10:39:58.345Z,100409.28
2024-01-04T10:42:25.803Z,100482.56
2024-01-04T10:44:53.803Z,100474.84
2024-01-04T10:47:21.281Z,100473.22
2024-01-04T10:49:50.060Z,100464.59
2024-01-04T10:52:19.520Z,100468.16
2024-01-04T10:54:46.361Z,100457.72
2024-01-04T10:57:14.368Z,100457.78
2024-01-04T10:59:45.777Z,100444.81
2024-01-04T11:02:15.817Z,100431.59
2024-01-04T11:04:43.953Z,100414.06
2024-01-04T11:07:10.915Z,100420.28
2024-01-04T11:09:37.593Z,100407.31
2024-01-04T11:12:06.564Z,100412.63
2024-01-04T11:14:33.279Z,100407.50
2024-01-04T11:17:09.153Z,100417.03
2024-01-04T11:19:41.888Z,100411.06
2024-01-04T11:22:14.603Z,100401.69
2024-01-04T11:24:49.757Z,100399.25
2024-01-04T11:27:18.697Z,100390.75
2024-01-04T11:29:47.034Z,100378.50
2024-01-04T11:32:13.828Z,100380.34
2024-01-04T11:34:40.879Z,100386.75
2024-01-04T11:37:22.135Z,100384.22
2024-01-04T11:40:08.542Z,100365.19
2024-01-04T11:42:42.503Z,100368.84
2024-01-04T11:45:16.463Z,100366.25
2024-01-04T11:47:46.041Z,100351.44
2024-01-04T11:50:30.503Z,100360.13
2024-01-04T11:53:07.743Z,100342.03
2024-01-04T11:55:39.881Z,100332.31
2024-01-04T11:58:12.018Z,100339.47
2024-01-04T12:00:43.600Z,100339.59
2024-01-04T12:03:14.966Z,100319.69
2024-01-04T12:05:45.501Z,100321.41
2024-01-04T12:08:27.154Z,100323.03
2024-01-04T12:10:57.749Z,100274.56
2024-01-04T12:13:25.165Z,100305.38
2024-01-04T12:15:55.681Z,100281.56
2024-01-04T12:18:26.484Z,100268.31
2024-01-04T12:21:03.108Z,100273.69
2024-01-04T12:23:37.744Z,100276.31
2024-01-04T12:26:05.704Z,100274.50
2024-01-04T12:28:35.953Z,100265.84
2024-01-04T12:31:05.588Z,100262.22
2024-01-04T12:33:33.083Z,100258.00
2024-01-04T12:36:01.376Z,100249.41
2024-01-04T12:38:29.633Z,100244.25
2024-01-04T12:40:57.220Z,100239.13
2024-01-04T12:43:25.710Z,100226.09
2024-01-04T12:46:10.126Z,100209.63
2024-01-04T12:48:42.094Z,100202.66
2024-01-04T12:51:15.998Z,100194.00
2024-01-04T12:53:47.397Z,100183.63
2024-01-04T12:56:17.163Z,100169.78
2024-01-04T12:58:45.873Z,100166.31
2024-01-04T13:01:13.292Z,100161.09
2024-01-04T13:03:44.478Z,100152.44
2024-01-04T13:06:11.721Z,100142.88
2024-01-04T13:08:38.516Z,100146.28
2024-01-04T13:11:05.284Z,100139.19
2024-01-04T13:13:33.488Z,100138.22
2024-01-04T13:16:01.819Z,100134.72
2024-01-04T13:18:28.938Z,100122.56
2024-01-04T13:20:55.916Z,100113.88
2024-01-04T13:23:23.287Z,100108.63
2024-01-04T13:25:50.271Z,100099.97
2024-01-04T13:28:19.999Z,100080.84
2024-01-04T13:30:49.007Z,100073.94
2024-01-04T13:33:15.916Z,100068.66
2024-01-04T13:35:42.705Z,100007.16
2024-01-04T13:38:11.695Z,100044.09
2024-01-04T13:40:40.627Z,100045.97
2024-01-04T13:43:09.729Z,100037.19
2024-01-04T13:45:38.715Z,100039.81
2024-01-04T13:48:05.684Z,99994.38
2024-01-04T13:50:34.703Z,99983.75
2024-01-04T13:53:03.652Z,100023.56
2024-01-04T13:55:32.542Z,100003.69
2024-01-04T13:57:59.204Z,99997.66
2024-01-04T14:00:26.573Z,99993.41
2024-01-04T14:02:53.511Z,99995.16
2024-01-04T14:05:22.764Z,99992.63
2024-01-04T14:07:49.607Z,99991.00
2024-01-04T14:10:16.283Z,99982.41
2024-01-04T14:12:47.777Z,99973.81
2024-01-04T14:15:16.953Z,99961.75
2024-01-04T14:17:43.755Z,99944.50
2024-01-04T14:20:11.580Z,99922.81
2024-01-04T14:22:38.389Z,99919.34
2024-01-04T14:25:05.360Z,99911.53
2024-01-04T14:27:34.141Z,99895.91
2024-01-04T14:30:01.952Z,99896.66
2024-01-04T14:32:33.237Z,99882.63
2024-01-04T14:35:06.062Z,99876.53
2024-01-04T14:37:36.710Z,99861.88
2024-01-04T14:40:03.627Z,99833.81
2024-01-04T14:42:34.146Z,99832.19
2024-01-04T14:45:01.768Z,99844.56
2024-01-04T14:47:31.475Z,99831.50
2024-01-04T14:50:01.097Z,99823.63
2024-01-04T14:52:30.511Z,99835.72
2024-01-04T14:54:57.191Z,99828.00
2024-01-04T14:57:24.616Z,99813.22
2024-01-04T14:59:54.350Z,99797.38
2024-01-04T15:02:23.979Z,99788.94
2024-01-04T15:04:50.784Z,99778.47
2024-01-04T15:07:17.586Z,99769.00
2024-01-04T15:09:44.420Z,99768.09
2024-01-04T15:12:11.509Z,99762.78
2024-01-04T15:14:39.041Z,99764.47
2024-01-04T15:17:05.752Z,99740.09
2024-01-04T15:19:32.609Z,99712.41
2024-01-04T15:21:59.377Z,99702.19
2024-01-04T15:24:27.425Z,99690.81
2024-01-04T15:26:54.298Z,99688.31
2024-01-04T15:29:21.390Z,99689.19
2024-01-04T15:31:48.662Z,99674.47
2024-01-04T15:34:17.937Z,99641.28
2024-01-04T15:36:45.569Z,99641.53
2024-01-04T15:39:12.978Z,99622.97
2024-01-04T15:41:39.686Z,99637.22
2024-01-04T15:44:06.625Z,99617.97
2024-01-04T15:46:38.868Z,99611.22
2024-01-04T15:49:07.871Z,99598.28
2024-01-04T15:51:34.873Z,99593.09
2024-01-04T15:54:01.577Z,99575.78
2024-01-04T15:56:32.567Z,99567.25
2024-01-04T15:58:59.679Z,99544.69
2024-01-04T16:01:26.625Z,99543.03
2024-01-04T16:03:55.683Z,99532.75
2024-01-04T16:06:23.616Z,99530.28
2024-01-04T16:08:50.678Z,99533.84
2024-01-04T16:11:19.954Z,99512.25
2024-01-04T16:13:47.799Z,99496.84
2024-01-04T16:16:15.742Z,99488.31
2024-01-04T16:18:47.262Z,99494.47
2024-01-04T16:21:16.361Z,99465.13
2024-01-04T16:23:43.511Z,99476.47
2024-01-04T16:26:13.048Z,99481.75
2024-01-04T16:28:41.502Z,99474.97
2024-01-04T16:31:08.758Z,99436.75
2024-01-04T16:33:40.365Z,99454.44
2024-01-04T16:36:10.499Z,99445.00
2024-01-04T16:38:38.178Z,99470.13
2024-01-04T16:41:12.338Z,99449.47
2024-01-04T16:43:42.400Z,99451.34
2024-01-04T16:46:09.656Z,99420.34
2024-01-04T16:48:36.671Z,99432.59
2024-01-04T16:51:05.599Z,99414.53
2024-01-04T16:53:32.475Z,99423.34
2024-01-04T16:55:59.427Z,99422.59
2024-01-04T16:58:28.578Z,99427.06
2024-01-04T17:00:55.626Z,99425.44
2024-01-04T17:03:22.574Z,99422.00
2024-01-04T17:05:52.762Z,99395.22
2024-01-04T17:08:22.079Z,99397.03
2024-01-04T17:10:51.113Z,99391.88
2024-01-04T17:13:17.812Z,99385.88
2024-01-04T17:15:44.928Z,99332.78
2024-01-04T17:18:11.809Z,99378.22
2024-01-04T17:20:38.697Z,99378.22
2024-01-04T17:23:05.561Z,99370.50
2024-01-04T17:25:32.291Z,99375.72
2024-01-04T17:28:01.474Z,99369.63
2024-01-04T17:30:28.281Z,99372.25
2024-01-04T17:32:57.561Z,99377.50
2024-01-04T17:35:24.463Z,99367.97
2024-01-04T17:37:51.158Z,99374.94
2024-01-04T17:40:20.590Z,99371.50
2024-01-04T17:42:47.577Z,99378.44
2024-01-04T17:45:16.870Z,99344.53
2024-01-04T17:47:47.047Z,99355.97
2024-01-04T17:50:13.925Z,99353.38
2024-01-04T17:52:40.642Z,99347.31
2024-01-04T17:55:09.310Z,99356.03
2024-01-04T17:57:36.005Z,99336.06
2024-01-04T18:00:02.939Z,99286.38
2024-01-04T18:02:30.187Z,99354.31
2024-01-04T18:04:56.931Z,99325.63
2024-01-04T18:07:23.566Z,99339.63
2024-01-04T18:09:50.325Z,99330.97
2024-01-04T18:12:17.177Z,99332.69
2024-01-04T18:14:44.100Z,99326.56
2024-01-04T18:17:11.206Z,99325.72
2024-01-04T18:19:40.533Z,99328.25
2024-01-04T18:22:07.238Z,99336.16
2024-01-04T18:24:33.973Z,99330.09
2024-01-04T18:27:00.781Z,99327.47
2024-01-04T18:29:27.717Z,99341.38
2024-01-04T18:31:54.444Z,99335.25
2024-01-04T18:34:23.425Z,99330.03
2024-01-04T18:36:50.607Z,99334.38
2024-01-04T18:39:20.945Z,99330.94
2024-01-04T18:41:50.117Z,99314.38
2024-01-04T18:44:20.491Z,99326.53
2024-01-04T18:46:47.566Z,99326.56
2024-01-04T18:49:14.414Z,99321.31
2024-01-04T18:51:41.644Z,99321.28
2024-01-04T18:54:08.640Z,99319.50
2024-01-04T18:56:35.497Z,99326.44
2024-01-04T18:59:07.635Z,99311.66
2024-01-04T19:01:34.280Z,99309.97
2024-01-04T19:04:01.032Z,99314.34
2024-01-04T19:06:28.598Z,99298.66
2024-01-04T19:08:55.378Z,99316.03
2024-01-04T19:11:22.151Z,99295.13
2024-01-04T19:13:49.030Z,99282.91
2024-01-04T19:16:18.176Z,99319.47
2024-01-04T19:18:50.959Z,99309.09
2024-01-04T19:21:18.954Z,99319.47
2024-01-04T19:23:47.951Z,99308.16
2024-01-04T19:26:14.756Z,99314.25
2024-01-04T19:28:41.433Z,99303.78
2024-01-04T19:31:08.290Z,99315.09
2024-01-04T19:33:35.343Z,99311.56
2024-01-04T19:36:03.431Z,99308.06
2024-01-04T19:38:30.173Z,99310.72
2024-01-04T19:40:56.955Z,99308.03
2024-01-04T19:43:23.786Z,99321.16
2024-01-04T19:45:54.287Z,99317.66
2024-01-04T19:48:24.740Z,99312.50
2024-01-04T19:50:53.975Z,99306.41
2024-01-04T19:53:20.870Z,99297.75
2024-01-04T19:55:47.739Z,99295.13
2024-01-04T19:58:16.608Z,99289.00
2024-01-04T20:00:46.386Z,99289.88
2024-01-04T20:03:13.244Z,99289.81
2024-01-04T20:05:40.139Z,99288.09
2024-01-04T20:08:06.901Z,99286.38
2024-01-04T20:10:33.756Z,99295.09
2024-01-04T20:13:02.672Z,99290.78
2024-01-04T20:15:34.264Z,99210.66
2024-01-04T20:18:01.124Z,99288.22
2024-01-04T20:20:35.332Z,99281.31
2024-01-04T20:23:02.002Z,99283.91
2024-01-04T20:25:31.378Z,99290.84
2024-01-04T20:27:58.124Z,99290.00
2024-01-04T20:30:25.207Z,99294.34
2024-01-04T20:32:52.466Z,99285.69
2024-01-04T20:35:19.295Z,99270.00
2024-01-04T20:37:49.080Z,99287.47
2024-01-04T20:40:18.523Z,99257.00
2024-01-04T20:42:48.912Z,99278.84
2024-01-04T20:45:18.386Z,99266.66
2024-01-04T20:47:45.169Z,99280.66
2024-01-04T20:50:12.337Z,99281.53
2024-01-04T20:52:39.099Z,99282.41
2024-01-04T20:55:07.310Z,99279.84
2024-01-04T20:57:35.387Z,99278.09
2024-01-04T21:00:02.317Z,99271.16
2024-01-04T21:02:29.004Z,99260.75
2024-01-04T21:04:55.822Z,99259.88
2024-01-04T21:07:22.676Z,99281.66
2024-01-04T21:09:49.371Z,99279.06
2024-01-04T21:12:18.447Z,99286.91
2024-01-04T21:14:46.420Z,99279.03
2024-01-04T21:17:13.240Z,99286.78
2024-01-04T21:19:42.505Z,99289.19
2024-01-04T21:22:19.340Z,99298.44
2024-01-04T21:24:48.350Z,99304.25
2024-01-04T21:27:17.546Z,99313.53
2024-01-04T21:29:46.812Z,99309.81
2024-01-04T21:32:18.551Z,99325.16
2024-01-04T21:34:45.281Z,99271.69
2024-01-04T21:37:12.044Z,99336.81
2024-01-04T21:39:38.792Z,99305.16
2024-01-04T21:42:05.889Z,99336.25
2024-01-04T21:44:32.658Z,99341.28
2024-01-04T21:46:59.361Z,99341.03
2024-01-04T21:49:30.960Z,99347.72
2024-01-04T21:51:57.908Z,99358.69
2024-01-04T21:54:24.674Z,99347.06
2024-01-04T21:56:51.375Z,99370.34
2024-01-04T21:59:18.072Z,99365.84
2024-01-04T22:01:46.984Z,99368.28
2024-01-04T22:04:13.768Z,99381.97
2024-01-04T22:06:43.081Z,99383.47
2024-01-04T22:09:10.216Z,99367.56
2024-01-04T22:11:44.054Z,99394.44
2024-01-04T22:14:11.038Z,99401.09
2024-01-04T22:16:40.003Z,99398.44
2024-01-04T22:19:11.261Z,99405.97
2024-01-04T22:21:41.020Z,99394.50
2024-01-04T22:24:08.321Z,99420.28
2024-01-04T22:26:35.144Z,99424.34
2024-01-04T22:29:02.027Z,99433.56
2024-01-04T22:31:29.066Z,99444.63
2024-01-04T22:33:58.491Z,99447.00
2024-01-04T22:36:25.262Z,99464.00
2024-01-04T22:38:51.968Z,99434.84
2024-01-04T22:41:18.939Z,99463.28
2024-01-04T22:43:48.641Z,99477.75
2024-01-04T22:46:15.924Z,99467.25
2024-01-04T22:48:42.815Z,99484.31
2024-01-04T22:51:11.977Z,99481.44
2024-01-04T22:53:38.684Z,99500.19
2024-01-04T22:56:05.964Z,99503.44
2024-01-04T22:58:35.758Z,99506.78
2024-01-04T23:01:02.525Z,99518.75
2024-01-04T23:03:29.330Z,99509.94
2024-01-04T23:05:56.829Z,99537.50
2024-01-04T23:08:23.518Z,99536.59
2024-01-04T23:10:53.012Z,99535.66
2024-01-04T23:13:19.666Z,99533.66
2024-01-04T23:15:46.350Z,99563.84
2024-01-04T23:18:13.481Z,99556.84
2024-01-04T23:20:40.237Z,99564.63
2024-01-04T23:23:07.151Z,99566.19
2024-01-04T23:25:36.736Z,99578.34
2024-01-04T23:28:03.762Z,99577.28
2024-01-04T23:30:34.378Z,99591.31
2024-01-04T23:33:01.936Z,99592.97
2024-01-04T23:35:28.889Z,99593.06
2024-01-04T23:37:55.574Z,99598.34
2024-01-04T23:40:22.309Z,99612.19
2024-01-04T23:42:49.064Z,99610.50
2024-01-04T23:45:15.937Z,99617.47
2024-01-04T23:47:42.823Z,99607.09
2024-01-04T23:50:09.807Z,99621.91
2024-01-04T23:52:36.540Z,99625.31
2024-01-04T23:55:03.393Z,99620.91
2024-01-04T23:57:30.360Z,99631.34
2024-01-04T23:59:57.285Z,99631.34
